Mr. Cass — WDB5593 — position and weather

sailwx.info

Track history (hours):
 
Tides and Currents Weather Stations Pressure Air Temp Water Temp Dewpoint Dewpoint Depression Visibility Wind Speed Wind Dir Waves Ship Positions

Mr. Cass

Owner: Cass Marine Towing LLC, Marrero, LA. More information available from US FCC via Universal Licensing System and Coast Guard Vessel Documentation Center.

Last reported at 2014-Nov-23 00:32 UTC. Time now 2014-Nov-23 01:14 UTC.
Position N 29°54' W 090°05'.

Length 17 m; draft 3.5 m.

Type: Towing. MMSI: 366911310.

Date/timePositionNaut miles runAvg speedWind from/ knotsBaromVisibWave heightAir tempDewpointWater temp
2014-Nov-23 00:32N 29°54' W 090°05'0 0.0
2014-Nov-22 23:28N 29°54' W 090°05'0 0.0
2014-Nov-22 22:33N 29°54' W 090°05'0 0.0
2014-Nov-22 21:33N 29°54' W 090°05'0 0.0
2014-Nov-22 20:32N 29°54' W 090°05'0 0.0
2014-Nov-22 19:32N 29°54' W 090°05'0 0.0
2014-Nov-22 18:33N 29°54' W 090°05'0 0.0
2014-Nov-22 17:34N 29°54' W 090°05'0 0.0
2014-Nov-22 16:33N 29°54' W 090°05'0 0.0
2014-Nov-22 15:33N 29°54' W 090°05'0 0.0
2014-Nov-22 14:34N 29°54' W 090°05'0 0.0
2014-Nov-22 13:31N 29°54' W 090°05'0 0.0
2014-Nov-22 12:27N 29°54' W 090°05'0 0.0
2014-Nov-22 11:26N 29°54' W 090°05'0 0.0
2014-Nov-21 19:30N 29°54' W 090°05'0 0.0
2014-Nov-21 18:13N 29°54' W 090°05'0 0.0
2014-Nov-21 16:24N 29°54' W 090°05'0 0.0
2014-Nov-21 15:25N 29°54' W 090°05'0 0.0
2014-Nov-21 14:26N 29°54' W 090°05'0 0.0
2014-Nov-21 13:25N 29°54' W 090°05'0 0.0
2014-Nov-21 12:25N 29°54' W 090°05'0 0.0
2014-Nov-21 11:33N 29°54' W 090°05'0 0.0
2014-Nov-21 10:29N 29°54' W 090°05'0 0.0
2014-Nov-21 09:12N 29°54' W 090°05'0 0.0
2014-Nov-21 08:31N 29°54' W 090°05'0 0.0
2014-Nov-21 07:30N 29°54' W 090°05'0 0.0
2014-Nov-21 06:33N 29°54' W 090°05'0 0.0
2014-Nov-21 05:33N 29°54' W 090°05'0 0.0
2014-Nov-21 04:32N 29°54' W 090°05'0 0.0
2014-Nov-21 03:32N 29°54' W 090°05'0 0.0
2014-Nov-21 02:33N 29°54' W 090°05'0 0.0
2014-Nov-21 01:33N 29°54' W 090°05'0 0.0
2014-Nov-21 00:30N 29°54' W 090°05'0 0.0
2014-Nov-20 23:33N 29°54' W 090°05'0 0.0
2014-Nov-20 22:32N 29°54' W 090°05'0 0.0
2014-Nov-20 21:32N 29°54' W 090°05'0 0.0
2014-Nov-20 01:08N 29°54' W 090°05'0 0.0
2014-Nov-19 23:32N 29°54' W 090°05'0 0.0
2014-Nov-19 21:23N 29°54' W 090°05'0 0.0
2014-Nov-19 16:22N 29°54' W 090°05'0 0.0
2014-Nov-19 15:32N 29°54' W 090°05'4 3.4
2014-Nov-19 14:23N 29°50' W 090°03'5 2.1
2014-Nov-19 12:07N 29°54' W 089°60'0 0.0
2014-Nov-19 11:27N 29°54' W 089°60'2 2.0
2014-Nov-19 10:31N 29°55' W 089°58'6 0.4
2014-Nov-18 19:12N 29°55' W 090°05'1 0.2
2014-Nov-18 14:21N 29°56' W 090°04'6 2.8
2014-Nov-18 12:15N 29°56' W 090°10'2 2.7
2014-Nov-18 11:30N 29°55' W 090°08'4 4.2
2014-Nov-18 10:32N 29°56' W 090°04'3 2.7
2014-Nov-18 09:33N 29°58' W 090°02'0 0.4
2014-Nov-18 08:28N 29°58' W 090°02'1 0.0
2014-Nov-17 02:34N 29°57' W 090°02'0 0.1
2014-Nov-16 20:28N 29°57' W 090°02'0 0.0
2014-Nov-16 19:16N 29°57' W 090°02'0 0.0
2014-Nov-16 18:16N 29°57' W 090°02'3 3.9
2014-Nov-16 17:32N 29°55' W 090°04'3 0.4
2014-Nov-16 10:08N 29°54' W 090°07'0 0.0
2014-Nov-16 08:26N 29°54' W 090°07'0 0.0
2014-Nov-16 05:33N 29°54' W 090°07'0 0.0
2014-Nov-16 04:20N 29°54' W 090°07'0 0.0
2014-Nov-16 01:32N 29°54' W 090°07'0 0.0
2014-Nov-15 05:07N 29°54' W 090°07'0 0.0
2014-Nov-15 00:25N 29°54' W 090°07'0 0.0
2014-Nov-14 18:05N 29°54' W 090°07'3 1.3
2014-Nov-14 16:06N 29°55' W 090°05'3 4.5
2014-Nov-14 15:30N 29°57' W 090°03'1 0.8
2014-Nov-14 14:32N 29°57' W 090°02'4 0.5
2014-Nov-14 06:33N 29°55' W 090°05'5 4.4
2014-Nov-14 05:29N 29°56' W 090°00'7 0.4
2014-Nov-13 14:22N 29°54' W 090°07'0 0.0
2014-Nov-13 03:33N 29°54' W 090°07'  
Track history (hours):
 
Tides and Currents Weather Stations Pressure Air Temp Water Temp Dewpoint Dewpoint Depression Visibility Wind Speed Wind Dir Waves Ship Positions

Mr. Cass

Owner: Cass Marine Towing LLC, Marrero, LA. More information available from US FCC via Universal Licensing System and Coast Guard Vessel Documentation Center.

Last reported at 2014-Nov-23 00:32 UTC. Time now 2014-Nov-23 01:14 UTC.
Position N 29°54' W 090°05'.

Length 17 m; draft 3.5 m.

Type: Towing. MMSI: 366911310.

Date/timePositionNaut miles runAvg speedWind from/ knotsBaromVisibWave heightAir tempDewpointWater temp
2014-Nov-23 00:32N 29°54' W 090°05'0 0.0
2014-Nov-22 23:28N 29°54' W 090°05'0 0.0
2014-Nov-22 22:33N 29°54' W 090°05'0 0.0
2014-Nov-22 21:33N 29°54' W 090°05'0 0.0
2014-Nov-22 20:32N 29°54' W 090°05'0 0.0
2014-Nov-22 19:32N 29°54' W 090°05'0 0.0
2014-Nov-22 18:33N 29°54' W 090°05'0 0.0
2014-Nov-22 17:34N 29°54' W 090°05'0 0.0
2014-Nov-22 16:33N 29°54' W 090°05'0 0.0
2014-Nov-22 15:33N 29°54' W 090°05'0 0.0
2014-Nov-22 14:34N 29°54' W 090°05'0 0.0
2014-Nov-22 13:31N 29°54' W 090°05'0 0.0
2014-Nov-22 12:27N 29°54' W 090°05'0 0.0
2014-Nov-22 11:26N 29°54' W 090°05'0 0.0
2014-Nov-21 19:30N 29°54' W 090°05'0 0.0
2014-Nov-21 18:13N 29°54' W 090°05'0 0.0
2014-Nov-21 16:24N 29°54' W 090°05'0 0.0
2014-Nov-21 15:25N 29°54' W 090°05'0 0.0
2014-Nov-21 14:26N 29°54' W 090°05'0 0.0
2014-Nov-21 13:25N 29°54' W 090°05'0 0.0
2014-Nov-21 12:25N 29°54' W 090°05'0 0.0
2014-Nov-21 11:33N 29°54' W 090°05'0 0.0
2014-Nov-21 10:29N 29°54' W 090°05'0 0.0
2014-Nov-21 09:12N 29°54' W 090°05'0 0.0
2014-Nov-21 08:31N 29°54' W 090°05'0 0.0
2014-Nov-21 07:30N 29°54' W 090°05'0 0.0
2014-Nov-21 06:33N 29°54' W 090°05'0 0.0
2014-Nov-21 05:33N 29°54' W 090°05'0 0.0
2014-Nov-21 04:32N 29°54' W 090°05'0 0.0
2014-Nov-21 03:32N 29°54' W 090°05'0 0.0
2014-Nov-21 02:33N 29°54' W 090°05'0 0.0
2014-Nov-21 01:33N 29°54' W 090°05'0 0.0
2014-Nov-21 00:30N 29°54' W 090°05'0 0.0
2014-Nov-20 23:33N 29°54' W 090°05'0 0.0
2014-Nov-20 22:32N 29°54' W 090°05'0 0.0
2014-Nov-20 21:32N 29°54' W 090°05'0 0.0
2014-Nov-20 01:08N 29°54' W 090°05'0 0.0
2014-Nov-19 23:32N 29°54' W 090°05'0 0.0
2014-Nov-19 21:23N 29°54' W 090°05'0 0.0
2014-Nov-19 16:22N 29°54' W 090°05'0 0.0
2014-Nov-19 15:32N 29°54' W 090°05'4 3.4
2014-Nov-19 14:23N 29°50' W 090°03'5 2.1
2014-Nov-19 12:07N 29°54' W 089°60'0 0.0
2014-Nov-19 11:27N 29°54' W 089°60'2 2.0
2014-Nov-19 10:31N 29°55' W 089°58'6 0.4
2014-Nov-18 19:12N 29°55' W 090°05'1 0.2
2014-Nov-18 14:21N 29°56' W 090°04'6 2.8
2014-Nov-18 12:15N 29°56' W 090°10'2 2.7
2014-Nov-18 11:30N 29°55' W 090°08'4 4.2
2014-Nov-18 10:32N 29°56' W 090°04'3 2.7
2014-Nov-18 09:33N 29°58' W 090°02'0 0.4
2014-Nov-18 08:28N 29°58' W 090°02'1 0.0
2014-Nov-17 02:34N 29°57' W 090°02'0 0.1
2014-Nov-16 20:28N 29°57' W 090°02'0 0.0
2014-Nov-16 19:16N 29°57' W 090°02'0 0.0
2014-Nov-16 18:16N 29°57' W 090°02'3 3.9
2014-Nov-16 17:32N 29°55' W 090°04'3 0.4
2014-Nov-16 10:08N 29°54' W 090°07'0 0.0
2014-Nov-16 08:26N 29°54' W 090°07'0 0.0
2014-Nov-16 05:33N 29°54' W 090°07'0 0.0
2014-Nov-16 04:20N 29°54' W 090°07'0 0.0
2014-Nov-16 01:32N 29°54' W 090°07'0 0.0
2014-Nov-15 05:07N 29°54' W 090°07'0 0.0
2014-Nov-15 00:25N 29°54' W 090°07'0 0.0
2014-Nov-14 18:05N 29°54' W 090°07'3 1.3
2014-Nov-14 16:06N 29°55' W 090°05'3 4.5
2014-Nov-14 15:30N 29°57' W 090°03'1 0.8
2014-Nov-14 14:32N 29°57' W 090°02'4 0.5
2014-Nov-14 06:33N 29°55' W 090°05'5 4.4
2014-Nov-14 05:29N 29°56' W 090°00'7 0.4
2014-Nov-13 14:22N 29°54' W 090°07'0 0.0
2014-Nov-13 03:33N 29°54' W 090°07'  

Dump ship's entire track history